Weather observations for the past three days for
Hebbronville, Jim Hogg County Airport
Imperial (Metric)
Date Time (cdt) Wind (mph) Vis. (mi.) Weather Sky Cond. Temperature (ºF) Relative Humidity Wind Chill (°F) Heat Index (°F) Pressure Precipitation (in)
Air Dwpt 6 hour altimeter (in) sea level (mb) 1 hr 3 hr 6 hr
Max. Min.
10 09:35 SE 6 6.00 Fog/Mist OVC003 73.6 73.6 100% 29.88 0.0
10 09:15 SE 7 7.00 Overcast OVC003 73.2 73.2 100% 29.88 0.0
10 08:55 E 8 6.00 Fog/Mist OVC003 72.9 72.9 100% 29.88 0.0
10 08:35 SE 7 7.00 Overcast OVC003 72.5 72.5 100% 29.87 0.0
10 08:15 SE 7 5.00 Fog/Mist OVC003 72.5 72.5 100% 29.87 0.0
10 07:55 SE 5 3.00 Fog/Mist OVC003 72.5 72.5 100% 29.86 0.0
10 07:15 Vrbl 5 1.00 Fog/Mist VV003 72.1 72.1 100% 29.85 0.0
10 06:55 S 5 1.25 Fog/Mist OVC003 72.1 72.1 73 70.3 100% 29.84 0.0
10 06:35 Vrbl 5 1.50 Fog/Mist OVC003 72.1 72.1 100% 29.84 0.0
10 06:15 E 5 2.00 Fog/Mist OVC003 72.1 72.1 100% 29.84 0.0
10 05:55 S 3 1.50 Fog/Mist OVC003 72.1 72.1 100% 29.84 0.0
10 05:35 SE 5 2.50 Fog/Mist OVC003 72.3 72.3 100% 29.83 0.0
10 05:15 SE 3 5.00 Fog/Mist OVC002 72.3 72.3 100% 29.84 0.0
10 04:55 Calm 8.00 Overcast OVC003 71.8 71.8 100% 29.84 0.0
10 04:35 Calm 6.00 Fog/Mist FEW001 OVC004 71.1 71.1 100% 29.84 0.0
10 04:15 E 5 7.00 Mostly Cloudy BKN006 70.5 70.5 100% 29.84 0.0
10 03:55 Calm 8.00 Fair CLR 70.9 70.9 100% 29.84 0.0
10 03:35 Calm 8.00 Fair CLR 71.2 71.2 100% 29.84 0.0
10 03:15 SE 3 8.00 Fair CLR 71.6 71.6 100% 29.84 0.0
10 02:55 S 3 9.00 Fair CLR 71.6 71.6 100% 29.84 0.0
10 02:35 E 6 9.00 Fair CLR 72 72 100% 29.85 0.0
10 02:15 S 3 9.00 Fair CLR 71.8 71.8 100% 29.85 0.0
10 01:55 S 5 9.00 Fair CLR 72 72 100% 29.84 0.0
10 01:35 S 6 9.00 Fair CLR 72.3 72.3 100% 29.85 0.0
10 01:15 S 5 9.00 Fair CLR 72.7 72.7 100% 29.85 0.0
10 00:55 SE 3 9.00 Fair CLR 72.9 72.9 88.5 72.9 100% 29.85 0.0
10 00:35 SE 5 10.00 Fair CLR 73 73 100% 29.85 0.0
10 00:15 SE 5 10.00 Fair CLR 73.9 73.4 98% 29.85 0.0
09 23:55 SE 7 10.00 Fair CLR 74.3 72.7 95% 29.85 0.0
09 23:35 S 6 10.00 Fair CLR 74.8 72.7 93% 29.84 0.0
09 23:15 S 6 10.00 Fair CLR 75.4 72.5 91% 75 29.84 0.0
09 22:55 S 7 10.00 Fair CLR 75.9 72 88% 76 29.83 0.0
09 22:35 S 6 10.00 Fair CLR 76.6 71.6 84% 78 29.83 0.0
09 22:15 SE 7 10.00 Fair CLR 77.9 71.1 80% 80 29.83 0.0
09 21:55 SE 10 10.00 Fair CLR 79.2 70.3 74% 82 29.82 0.0
09 21:35 SE 10 10.00 Fair CLR 79.9 71.6 76% 83 29.82 0.0
09 21:15 SE 10 10.00 Fair CLR 81.1 72.1 74% 86 29.8 0.0
09 20:55 E 10 10.00 Fair CLR 82.6 72.1 71% 88 29.79 0.0
09 20:35 E 8 9.00 Fair CLR 83.1 70.9 67% 88 29.78 0.0
09 20:15 SE 6 8.00 Fair CLR 83.5 70.3 65% 88 29.76 0.0
09 19:55 E 7 9.00 Fair CLR 86.2 69.8 58% 91 29.76 0.0
09 19:35 E 8 9.00 Fair CLR 87.3 69.3 55% 92 29.76 0.0
09 19:15 E 9 9.00 Fair CLR 88.2 69.3 54% 93 29.76 0.0
09 18:55 SE 8 9.00 Fair CLR 88.3 68 89.2 82.8 51% 92 29.76 0.0
09 18:35 E 7 8.00 Fair CLR 89.1 68.2 50% 93 29.76 0.0
09 18:15 E 7 9.00 Fair CLR 88.5 67.5 50% 92 29.76 0.0
09 17:55 Vrbl 5 9.00 Fair CLR 88.7 68 50% 92 29.76 0.0
09 17:35 N 3 9.00 Fair CLR 88.3 66.6 49% 91 29.76 0.0
09 17:15 S 7 10.00 Fair CLR 88.5 67.5 50% 92 29.76 0.0
09 16:55 Calm 9.00 Fair CLR 87.6 67.1 51% 91 29.76 0.0
09 16:35 Calm 9.00 Fair CLR 87.6 66.7 50% 90 29.77 0.0
09 16:15 SW 3 9.00 Fair CLR 87.4 66.9 51% 90 29.77 0.0
09 15:55 Calm 9.00 Fair CLR 86.9 68 53% 90 29.78 0.0
09 15:35 Calm 10.00 Fair CLR 86.5 68.9 56% 91 29.79 0.0
09 15:15 SW 3 9.00 Fair CLR 86 69.1 57% 90 29.79 0.0
09 14:55 Vrbl 7 10.00 Fair CLR 86.4 70 58% 91 29.8 0.0
09 14:35 SW 8 9.00 A Few Clouds FEW350 86.2 70.2 59% 91 29.8 0.0
09 14:15 Calm 10.00 A Few Clouds FEW360 84.6 69.6 61% 89 29.81 0.0
09 13:55 Vrbl 5 9.00 Partly Cloudy FEW280 SCT310 SCT330 84.2 70.5 64% 89 29.81 0.0
09 13:35 Vrbl 5 9.00 A Few Clouds FEW280 83.8 71.4 66% 89 29.82 0.0
09 13:15 SW 7 9.00 A Few Clouds FEW330 83.7 70.9 66% 88 29.83 0.0
09 12:55 Vrbl 6 10.00 A Few Clouds FEW320 82.4 70.9 82.4 69.3 68% 87 29.84 0.0
09 12:35 SW 7 10.00 Fair CLR 82.2 71.4 70% 87 29.85 0.0
09 12:15 Calm 10.00 Fair CLR 80.2 71.4 75% 84 29.86 0.0
09 11:55 Vrbl 3 10.00 Fair CLR 79.2 70.9 76% 82 29.86 0.0
09 11:35 Calm 9.00 Fair CLR 79.3 71.8 78% 83 29.86 0.0
09 11:15 Vrbl 5 10.00 Fair CLR 77.7 71.8 82% 80 29.87 0.0
09 10:55 S 5 9.00 Fair CLR 77.2 71.6 83% 79 29.87 0.0
09 10:35 Calm 9.00 Fair CLR 76.1 71.6 86% 77 29.86 0.0
09 10:15 SE 6 9.00 Fair CLR 75.2 71.1 87% 75 29.86 0.0
09 09:55 SE 6 8.00 Fair CLR 74.8 71.6 90% 29.86 0.0
09 09:35 SE 6 10.00 Fair CLR 73.8 71.4 92% 29.85 0.0
09 09:15 E 5 10.00 Fair CLR 72.3 71.6 98% 29.85 0.0
09 08:55 SE 3 10.00 Fair CLR 70.3 70.3 100% 29.86 0.0
09 08:35 E 3 10.00 Fair CLR 70 70 100% 29.86 0.0
09 08:15 E 5 10.00 Fair CLR 70 70 100% 29.83 0.0
09 07:55 SE 5 10.00 Fair CLR 69.6 69.6 100% 29.83 0.0
09 07:35 E 6 10.00 Fair CLR 69.6 69.6 100% 29.8 0.0
09 07:15 SE 7 10.00 Fair CLR 69.4 69.4 100% 29.8 0.0
09 06:55 SE 9 10.00 A Few Clouds FEW015 69.4 69.4 77.5 68.4 100% 29.81 0.0 0.01 1.12
09 06:35 E 12 8.00 Mostly Cloudy SCT014 BKN110 70 70 100% 29.79 0.0 0.01
09 06:15 SE 10 G 17 10.00 A Few Clouds FEW110 70.9 70.9 100% 29.8 0.0
09 05:55 SE 16 G 25 9.00 Mostly Cloudy FEW002 BKN009 70.7 70.7 100% 29.76 0.0 0.04
09 05:35 SE 15 7.00 Light Rain SCT002 OVC016 70.7 70.7 100% 29.78 0.0 0.03
09 05:15 SE 15 9.00 Light Rain FEW002 SCT041 69.4 69.4 100% 29.78 0.0 0.01
09 04:55 E 3 10.00 A Few Clouds FEW009 69.1 69.1 100% 29.82 0.0 0.3
09 04:35 Calm 9.00 Light Rain BKN019 68.5 68.5 100% 29.82 0.0 0.3
09 04:15 N 14 2.00 Rain Fog/Mist FEW002 OVC026 68.4 68.4 100% 29.81 0.0 0.29
09 03:55 NW 13 G 22 1.25 Heavy Rain Fog/Mist FEW002 OVC010 70 70 100% 29.85 0.0 0.77 0.77
09 03:35 W 8 3.00 Heavy Rain Fog/Mist FEW002 OVC007 74.8 74.8 100% 29.84 0.0 0.19
09 03:15 E 7 8.00 Light Rain OVC004 74.8 74.8 100% 29.75 0.0
09 02:55 E 12 9.00 Mostly Cloudy BKN002 75.2 75.2 100% 73 29.73 0.0
09 02:35 E 10 9.00 A Few Clouds FEW002 75.6 75.6 100% 74 29.75 0.0
09 02:15 E 7 10.00 Fair CLR 75.9 75.9 100% 75 29.76 0.0
09 01:55 NE 5 10.00 Fair CLR 76.5 76.5 100% 76 29.79 0.0
09 01:35 Calm 8.00 Fair CLR 76.6 76.6 100% 77 29.79 0.0
09 01:15 NE 3 8.00 Fair CLR 76.8 76.8 100% 77 29.79 0.0
09 00:55 Calm 7.00 Partly Cloudy SCT003 77 77 84.4 77 100% 78 29.81 0.0 0.01 0.01
09 00:35 SE 10 7.00 Light Rain BKN005 77.4 77.4 100% 79 29.79 0.0 0.01
09 00:15 Calm 4.00 Light Rain Fog/Mist FEW001 78.8 77.4 95% 83 29.8 0.0 0.01
08 23:55 SE 8 9.00 Fair CLR 79.5 77.9 95% 85 29.78 0.0
08 23:35 SE 6 10.00 Fair CLR 79.7 77.9 94% 85 29.8 0.0
08 23:15 SE 7 9.00 Fair CLR 79.7 77.5 93% 85 29.78 0.0
08 22:55 SE 6 10.00 Fair CLR 79.7 76.8 91% 85 29.78 0.0
08 22:35 SE 6 10.00 Fair CLR 80.1 76.5 89% 86 29.77 0.0
08 22:15 SE 7 10.00 Fair CLR 80.8 76.3 86% 87 29.77 0.0
08 21:55 SE 3 10.00 Fair CLR 80.6 74.7 82% 86 29.76 0.0
08 21:35 SE 3 10.00 Fair CLR 80.4 74.3 82% 85 29.76 0.0
08 21:15 Calm 10.00 Fair CLR 81 74.1 80% 86 29.74 0.0
08 20:55 S 3 10.00 Fair CLR 81.1 73.9 79% 87 29.74 0.0
08 20:35 S 3 10.00 Fair CLR 81.9 73.9 77% 88 29.72 0.0
08 20:15 S 3 10.00 Fair CLR 83.3 73.8 73% 90 29.73 0.0
08 19:55 S 6 9.00 Fair CLR 84 73.8 71% 91 29.71 0.0
08 19:35 S 6 9.00 Fair CLR 84 73.9 72% 91 29.7 0.0
08 19:15 S 7 10.00 Fair CLR 84.4 73.9 71% 92 29.72 0.0
08 18:55 S 8 9.00 Fair CLR 84.7 73.8 88.2 82.9 70% 92 29.71 0.0
08 18:35 S 9 10.00 Fair CLR 84.9 74.1 70% 93 29.71 0.0
08 18:15 S 12 9.00 Fair CLR 85.5 74.7 70% 94 29.71 0.0
08 17:55 SE 14 9.00 Fair CLR 85.5 75 71% 94 29.7 0.0
08 17:35 S 9 8.00 Fair CLR 85.6 74.7 70% 94 29.71 0.0
08 17:15 SE 12 9.00 A Few Clouds FEW370 86.2 74.8 69% 95 29.72 0.0
08 16:55 SE 10 10.00 Fair CLR 86.4 75 69% 96 29.72 0.0
08 16:35 S 12 9.00 Fair CLR 86 74.8 69% 95 29.73 0.0
08 16:15 S 12 10.00 A Few Clouds FEW330 87.1 74.5 66% 96 29.73 0.0
08 15:55 S 13 9.00 A Few Clouds FEW320 87.3 75 67% 97 29.75 0.0
08 15:35 S 12 G 18 10.00 A Few Clouds FEW320 87.1 74.5 66% 96 29.76 0.0
08 15:15 S 13 10.00 A Few Clouds FEW320 87.4 74.5 65% 96 29.77 0.0
08 14:55 SE 8 10.00 A Few Clouds FEW310 85.6 75 71% 94 29.78 0.0
08 14:35 SE 9 10.00 A Few Clouds FEW270 86.2 74.7 69% 95 29.79 0.0
08 14:15 SE 10 10.00 A Few Clouds FEW360 84.9 74.3 71% 93 29.78 0.0
08 13:55 S 8 10.00 Partly Cloudy FEW300 SCT340 SCT370 85.3 74.5 70% 93 29.8 0.0
08 13:35 SE 10 10.00 Partly Cloudy FEW270 SCT340 85.3 74.7 71% 94 29.81 0.0
08 13:15 SE 10 10.00 A Few Clouds FEW270 82.9 74.8 77% 90 29.81 0.0
08 12:55 Vrbl 7 10.00 A Few Clouds FEW370 83.8 74.7 84 67.6 74% 91 29.83 0.0
08 12:35 Vrbl 5 10.00 Fair CLR 82 75 79% 89 29.83 0.0
08 12:15 Vrbl 5 10.00 A Few Clouds FEW350 80.8 74.5 81% 86 29.84 0.0
08 11:55 SE 7 10.00 A Few Clouds FEW330 80.2 74.3 82% 85 29.85 0.0
08 11:35 SE 6 10.00 A Few Clouds FEW330 79.2 74.3 85% 83 29.85 0.0
08 11:15 SE 9 10.00 A Few Clouds FEW013 78.8 74.3 86% 82 29.86 0.0
08 10:55 E 10 10.00 Partly Cloudy SCT012 77.5 73.9 89% 79 29.87 0.0
08 10:35 E 8 10.00 A Few Clouds FEW010 75.9 73.6 93% 76 29.87 0.0
08 10:15 E 7 10.00 Mostly Cloudy BKN009 73.8 72.7 96% 29.88 0.0
08 09:55 NE 7 10.00 Overcast OVC005 71.6 71.6 100% 29.89 0.0
08 09:35 NE 7 10.00 Overcast OVC003 70 70 100% 29.89 0.0
08 09:15 NE 8 10.00 Overcast OVC003 69.1 69.1 100% 29.89 0.0
08 08:55 NE 9 10.00 Overcast OVC003 69.1 69.1 100% 29.89 0.0
08 08:35 NE 9 10.00 Overcast OVC003 69.1 69.1 100% 29.89 0.0
08 08:15 NE 7 10.00 Overcast OVC003 68.7 68.7 100% 29.89 0.0
08 07:55 Calm 8.00 Overcast OVC003 68.5 68.5 100% 29.89 0.0
08 07:35 N 5 7.00 Overcast OVC003 68.5 68.5 100% 29.89 0.0
08 07:15 Vrbl 5 6.00 Fog/Mist OVC003 68 68 100% 29.88 0.0
08 06:55 NE 5 7.00 Overcast OVC002 67.5 67.5 68.9 67.3 100% 29.89 0.0
08 06:35 NE 5 6.00 Fog/Mist OVC002 67.3 67.3 100% 29.88 0.0
08 06:15 N 6 4.00 Fog/Mist BKN002 OVC007 67.5 67.5 100% 29.88 0.0
08 05:55 N 3 5.00 Fog/Mist OVC004 67.6 67.6 100% 29.89 0.0
08 05:35 Calm 6.00 Fog/Mist OVC005 67.6 67.6 100% 29.88 0.0
08 05:15 Calm 6.00 Fog/Mist OVC005 67.6 67.6 100% 29.87 0.0
08 04:55 Calm 8.00 Overcast OVC005 68 68 100% 29.87 0.0
08 04:35 Calm 8.00 Overcast OVC005 68 68 100% 29.87 0.0
08 04:15 NE 5 8.00 Overcast OVC006 67.8 67.8 100% 29.87 0.0
08 03:55 N 5 8.00 Overcast OVC005 67.8 67.8 100% 29.87 0.0
08 03:35 NE 6 7.00 Overcast OVC006 67.8 67.8 100% 29.87 0.0
08 03:15 NE 6 9.00 Overcast OVC008 68.2 68.2 100% 29.89 0.0
08 02:55 Calm 10.00 Overcast OVC010 68.5 68.4 99% 29.9 0.0
08 02:35 Calm 10.00 Overcast OVC011 68.5 68 98% 29.91 0.0
08 02:15 N 5 10.00 Overcast OVC012 68.7 67.8 97% 29.92 0.0
08 01:55 N 5 10.00 Overcast OVC013 68.7 68 98% 29.93 0.0
08 01:35 Calm 10.00 Overcast OVC014 68.9 67.5 95% 29.94 0.0
08 01:15 Calm 10.00 Overcast OVC014 68.4 67.8 98% 29.95 0.0
08 00:55 Calm 8.00 Overcast OVC014 68.5 67.3 72.9 67.8 96% 29.94 0.0 0.01
08 00:35 Calm 10.00 Overcast OVC015 68.5 67.3 96% 29.93 0.0
08 00:15 NE 3 10.00 Overcast OVC015 68.4 67.3 96% 29.93 0.0
07 23:55 N 8 7.00 Overcast OVC015 68 67.6 99% 29.91 0.0
07 23:35 N 7 6.00 Fog/Mist OVC015 67.8 67.6 99% 29.9 0.0
07 23:15 N 8 7.00 Overcast OVC016 67.8 67.8 100% 29.91 0.0
07 22:55 Calm 10.00 Overcast OVC018 68.4 67.8 98% 29.95 0.0
07 22:35 SW 5 10.00 Overcast OVC017 68.2 68 99% 29.97 0.0
07 22:15 Calm 10.00 Mostly Cloudy BKN015 68.2 67.8 99% 29.92 0.0
07 21:55 NE 10 10.00 A Few Clouds FEW016 68 67.6 99% 29.86 0.0 0.01 0.01
07 21:35 E 13 10.00 Light Rain FEW002 BKN016 68.2 67.8 99% 29.84 0.0 0.01
07 21:15 E 7 7.00 Light Rain SCT002 BKN006 BKN016 68.9 68 97% 29.89 0.0 0.01
07 20:55 SE 13 10.00 Light Rain FEW019 70.7 67.3 89% 29.89 0.0
07 20:35 E 8 9.00 Light Rain SCT019 71.2 67.5 88% 29.91 0.0
07 20:15 NE 6 10.00 A Few Clouds FEW018 71.8 66.7 84% 29.93 0.0
07 19:55 E 10 10.00 Fair CLR 72.1 66.7 83% 29.89 0.0
07 19:35 NE 10 10.00 Fair CLR 72.3 66.9 83% 29.89 0.0
07 19:15 NE 8 10.00 Fair CLR 72.7 66.9 82% 29.9 0.0
07 18:55 NE 10 10.00 Fair CLR 73.2 66.9 75.7 73 81% 29.89 0.0
07 18:35 NE 12 10.00 Fair CLR 73.4 67.1 81% 29.89 0.0
07 18:15 NE 10 10.00 Fair CLR 73.4 66.9 80% 29.89 0.0
07 17:55 NE 12 10.00 Fair CLR 73.8 67.6 81% 29.89 0.0
07 17:35 NE 10 10.00 Fair CLR 73.9 67.6 81% 29.89 0.0
07 17:15 E 10 10.00 Fair CLR 75 68 79% 76 29.88 0.0
07 16:55 E 9 10.00 Fair CLR 75.4 68.4 79% 76 29.89 0.0
07 16:35 NE 8 10.00 Fair CLR 75 68 79% 76 29.9 0.0
07 16:15 E 8 10.00 Fair CLR 74.8 68.2 80% 29.89 0.0
07 15:15 E 9 10.00 Fair CLR 73.8 67.5 81% 29.91 0.0
07 14:55 E 10 10.00 A Few Clouds FEW360 73.6 67.5 81% 29.92 0.0
07 14:35 E 13 10.00 A Few Clouds FEW360 73.8 67.5 81% 29.92 0.0
07 14:15 NE 13 10.00 A Few Clouds FEW360 74.3 67.6 80% 29.92 0.0
07 13:55 NE 13 10.00 A Few Clouds FEW370 74.1 67.5 80% 29.94 0.0
07 13:35 NE 12 10.00 A Few Clouds FEW370 75 67.5 77% 76 29.94 0.0
07 13:15 NE 10 10.00 Fair CLR 73.8 67.6 81% 29.95 0.0
07 12:55 NE 12 10.00 A Few Clouds FEW310 73.4 67.8 74.5 69.6 83% 29.96 0.0
07 12:35 NE 10 10.00 A Few Clouds FEW310 73.9 67.6 81% 29.95 0.0
07 12:15 NE 10 10.00 A Few Clouds FEW340 73.6 67.8 82% 29.95 0.0
07 11:55 E 9 10.00 Fair CLR 73.9 68 82% 29.95 0.0
07 11:35 E 8 10.00 Fair CLR 73 68 84% 29.95 0.0
07 11:15 NE 12 10.00 Fair CLR 72.3 68 86% 29.95 0.0
07 10:55 NE 10 9.00 Fair CLR 71.2 68 90% 29.95 0.0
07 10:35 NE 10 9.00 Fair CLR 71.2 68 90% 29.95 0.0
07 10:15 NE 10 9.00 Fair CLR 70.7 68.2 92% 29.95 0.0
07 09:55 NE 10 8.00 Fair CLR 70.2 68 93% 29.94 0.0
Date Time (cdt) Wind (mph) Vis. (mi.) Weather Sky Cond. Air Dwpt Max. Min. Relative Humidity Wind Chill (°F) Heat Index (°F) altimeter (in) sea level (mb) 1 hr 3 hr 6 hr
6 hour
Temperature (ºF) Pressure Precipitation (in)